Time;durP1;ratioP1;P1;durP2;ratioP2;P2;SDS_P1;SDS_P2;PMS_P1;PMS_P2;Temp;Humidity;BMP_temperature;BMP_pressure;BME280_temperature;BME280_humidity;BME280_pressure;Samples;Min_cycle;Max_cycle;Signal;HPM_P1;HPM_P2
2021/04/20 00:00:24;;;;;;;5.65;4.65;;;;;;;5.92;74.89;94134.66;2987404;39;20143;-85
2021/04/20 00:02:25;;;;;;;5.38;4.05;;;;;;;6.02;74.60;94129.41;2987407;39;20073;-85
2021/04/20 00:04:27;;;;;;;5.90;4.50;;;;;;;6.05;74.46;94123.13;2987271;39;20050;-84
2021/04/20 00:06:28;;;;;;;6.45;4.63;;;;;;;5.98;74.23;94124.66;2997031;39;20027;-84
2021/04/20 00:08:30;;;;;;;5.43;4.20;;;;;;;6.04;74.33;94127.50;2987208;39;20083;-86
2021/04/20 00:10:31;;;;;;;6.00;4.25;;;;;;;6.09;73.79;94127.91;2986965;39;20428;-82
2021/04/20 00:12:32;;;;;;;6.32;5.10;;;;;;;6.09;74.12;94133.09;2981806;39;20066;-83
2021/04/20 00:14:33;;;;;;;6.80;4.80;;;;;;;6.02;74.13;94129.41;2989682;39;20058;-84
2021/04/20 00:16:35;;;;;;;4.82;4.05;;;;;;;6.00;73.91;94136.56;2999948;39;20042;-83
2021/04/20 00:18:37;;;;;;;5.63;4.68;;;;;;;5.93;74.34;94135.47;2989998;39;20184;-72
2021/04/20 00:20:39;;;;;;;5.38;4.32;;;;;;;5.94;73.78;94132.75;2992446;39;20043;-72
2021/04/20 00:22:40;;;;;;;6.28;4.45;;;;;;;5.93;73.91;94125.06;2983282;39;20425;-71
2021/04/20 00:24:41;;;;;;;5.85;4.05;;;;;;;6.00;74.29;94131.38;2982295;39;20416;-71
2021/04/20 00:26:43;;;;;;;4.85;3.90;;;;;;;6.03;73.67;94131.06;2987551;39;20075;-83
2021/04/20 00:28:44;;;;;;;5.32;4.30;;;;;;;5.99;74.29;94124.53;2988404;39;20329;-82
2021/04/20 00:30:45;;;;;;;5.18;4.03;;;;;;;5.91;74.48;94134.78;2997749;39;20055;-86
2021/04/20 00:32:46;;;;;;;5.72;4.22;;;;;;;5.91;74.36;94127.81;2998301;39;20086;-85
2021/04/20 00:34:48;;;;;;;5.50;4.20;;;;;;;5.96;73.83;94135.22;2978184;39;20047;-85
2021/04/20 00:36:49;;;;;;;4.88;4.20;;;;;;;5.94;74.25;94132.75;2997334;39;20236;-85
2021/04/20 00:38:50;;;;;;;6.43;5.07;;;;;;;5.99;73.98;94131.50;2993039;39;20047;-72
2021/04/20 00:40:52;;;;;;;4.82;4.15;;;;;;;5.97;73.52;94142.03;2982050;39;20055;-71
2021/04/20 00:42:55;;;;;;;6.45;4.38;;;;;;;5.95;74.19;94138.78;2982901;39;20088;-71
2021/04/20 00:44:57;;;;;;;6.38;4.80;;;;;;;6.00;73.94;94139.19;2985513;39;20072;-72
2021/04/20 00:46:59;;;;;;;6.68;5.13;;;;;;;6.03;73.33;94143.25;2989758;39;20047;-71
2021/04/20 00:49:00;;;;;;;6.05;4.40;;;;;;;5.95;73.60;94139.59;2978490;39;20055;-71
2021/04/20 00:51:03;;;;;;;5.65;4.28;;;;;;;5.94;73.48;94143.16;2977466;39;20079;-71
2021/04/20 00:53:05;;;;;;;6.20;4.57;;;;;;;5.94;73.82;94140.56;2973301;39;20056;-70
2021/04/20 00:55:07;;;;;;;6.05;4.32;;;;;;;5.90;73.41;94148.75;2981915;39;20143;-70
2021/04/20 00:57:09;;;;;;;8.07;4.53;;;;;;;5.96;73.21;94145.63;2992102;39;20063;-70
2021/04/20 00:59:10;;;;;;;5.70;4.50;;;;;;;5.97;72.82;94147.25;2979128;39;20460;-72
2021/04/20 01:01:12;;;;;;;6.00;4.70;;;;;;;5.98;73.06;94148.91;2989807;39;20059;-71
2021/04/20 01:03:14;;;;;;;6.88;5.15;;;;;;;5.97;73.57;94142.03;2982871;39;20471;-71
2021/04/20 01:05:18;;;;;;;6.13;4.80;;;;;;;6.04;73.56;94142.28;2982067;39;20048;-70
2021/04/20 01:07:19;;;;;;;;;;;;;;;6.11;73.72;94143.34;2975394;40;20092;-72
2021/04/20 01:09:20;;;;;;;6.43;4.80;;;;;;;6.15;72.93;94140.31;2994543;39;20268;-83
2021/04/20 01:11:22;;;;;;;5.90;4.78;;;;;;;6.17;72.96;94140.16;2996309;39;20075;-84
2021/04/20 01:13:24;;;;;;;6.45;5.05;;;;;;;6.25;73.34;94140.25;2997177;39;20047;-84
2021/04/20 01:15:26;;;;;;;7.47;5.60;;;;;;;6.25;72.85;94144.63;2995422;39;20058;-84
2021/04/20 01:17:28;;;;;;;6.82;4.90;;;;;;;6.29;72.96;94149.41;2989641;39;20349;-84
2021/04/20 01:19:31;;;;;;;6.85;4.60;;;;;;;6.29;72.89;94148.59;2989391;39;20104;-85
2021/04/20 01:21:35;;;;;;;6.05;4.75;;;;;;;6.30;73.11;94151.03;2997576;39;20047;-84
2021/04/20 01:23:49;;;;;;;;;;;;;;;6.24;73.06;94151.63;3003309;39;20036;-85
2021/04/20 01:25:51;;;;;;;6.13;4.80;;;;;;;6.22;72.44;94150.94;2990363;39;19939;-83
2021/04/20 01:27:52;;;;;;;7.20;5.28;;;;;;;6.20;72.88;94154.66;2993913;39;20096;-83
2021/04/20 01:29:56;;;;;;;8.20;5.55;;;;;;;6.20;72.68;94152.06;3000298;39;20062;-84
2021/04/20 01:31:59;;;;;;;7.65;5.80;;;;;;;6.23;72.70;94156.97;2998765;39;20051;-85
2021/04/20 01:34:00;;;;;;;6.50;5.00;;;;;;;6.22;72.77;94157.94;2978929;39;20336;-71
2021/04/20 01:36:03;;;;;;;7.40;5.40;;;;;;;6.19;72.74;94160.81;2986685;39;20106;-72
2021/04/20 01:38:05;;;;;;;7.57;5.75;;;;;;;6.14;72.90;94162.06;2968767;39;20048;-73
2021/04/20 01:40:08;;;;;;;6.60;5.55;;;;;;;6.15;72.71;94165.47;2987364;39;20055;-73
2021/04/20 01:42:10;;;;;;;7.95;5.70;;;;;;;6.09;72.29;94172.09;2992863;39;20501;-71
2021/04/20 01:44:11;;;;;;;7.45;5.22;;;;;;;6.03;71.77;94162.28;2993014;39;20066;-71
2021/04/20 01:46:17;;;;;;;7.30;5.47;;;;;;;6.02;72.45;94165.81;2993784;39;20059;-84
2021/04/20 01:48:18;;;;;;;6.40;4.95;;;;;;;5.95;72.43;94164.78;2995808;39;20075;-83
2021/04/20 01:50:19;;;;;;;9.93;5.72;;;;;;;5.88;72.36;94163.69;2981367;39;20290;-81
2021/04/20 01:52:21;;;;;;;6.97;5.40;;;;;;;5.92;73.00;94162.44;2978653;39;20063;-83
2021/04/20 01:54:22;;;;;;;8.20;5.60;;;;;;;5.92;72.58;94168.44;2985881;39;20055;-84
2021/04/20 01:56:25;;;;;;;6.63;5.10;;;;;;;5.90;72.72;94170.38;2987282;39;20070;-84
2021/04/20 01:58:27;;;;;;;7.15;5.05;;;;;;;5.91;73.09;94165.97;2988078;39;20364;-85
2021/04/20 02:00:29;;;;;;;6.63;5.38;;;;;;;5.88;72.99;94164.50;2987704;39;20043;-83
2021/04/20 02:02:32;;;;;;;10.65;5.63;;;;;;;5.96;72.77;94156.03;2987231;39;20094;-84
2021/04/20 02:04:34;;;;;;;8.30;5.55;;;;;;;6.06;72.80;94161.97;3001368;39;20067;-84
2021/04/20 02:06:35;;;;;;;7.35;5.97;;;;;;;6.12;72.51;94164.00;2980102;39;20056;-83
2021/04/20 02:08:37;;;;;;;6.57;5.43;;;;;;;6.15;72.50;94166.31;2994184;39;20454;-85
2021/04/20 02:10:39;;;;;;;7.97;5.93;;;;;;;6.18;72.45;94165.22;2985703;39;20452;-74
2021/04/20 02:12:44;;;;;;;7.13;5.70;;;;;;;6.18;71.56;94167.00;2974633;39;20111;-70
2021/04/20 02:14:45;;;;;;;7.93;6.30;;;;;;;6.18;71.84;94165.22;2980506;39;20531;-71
2021/04/20 02:16:47;;;;;;;9.10;6.32;;;;;;;6.18;72.21;94167.00;2993298;39;20047;-72
2021/04/20 02:18:51;;;;;;;6.97;5.43;;;;;;;6.20;72.27;94172.88;2974938;39;20060;-70
2021/04/20 02:20:53;;;;;;;8.45;6.05;;;;;;;6.25;71.10;94162.84;2983312;39;20124;-70
2021/04/20 02:22:55;;;;;;;8.48;6.50;;;;;;;6.21;72.25;94171.91;2987373;39;20051;-84
2021/04/20 02:24:57;;;;;;;8.23;6.45;;;;;;;6.20;71.95;94168.47;2992134;39;20090;-83
2021/04/20 02:26:58;;;;;;;8.10;6.07;;;;;;;6.16;71.22;94169.72;2984701;39;20050;-84
2021/04/20 02:29:02;;;;;;;7.45;5.93;;;;;;;6.11;71.52;94174.56;2994087;39;20062;-82
2021/04/20 02:31:05;;;;;;;8.43;6.15;;;;;;;6.13;71.50;94177.81;3009298;39;20035;-82
2021/04/20 02:33:08;;;;;;;9.55;6.53;;;;;;;6.10;71.34;94173.72;3011119;39;20485;-82
2021/04/20 02:35:12;;;;;;;10.85;6.53;;;;;;;6.14;71.78;94177.66;2997474;39;21676;-81
2021/04/20 02:37:17;;;;;;;8.80;6.55;;;;;;;6.19;71.56;94177.22;2997238;39;20063;-84
2021/04/20 02:39:18;;;;;;;9.48;6.68;;;;;;;6.15;71.24;94183.69;2988053;39;20047;-84
2021/04/20 02:41:20;;;;;;;8.38;6.38;;;;;;;6.04;70.94;94178.69;2988529;39;20138;-86
2021/04/20 02:43:23;;;;;;;8.93;6.57;;;;;;;6.09;71.01;94177.31;2989126;39;20060;-83
2021/04/20 02:45:25;;;;;;;9.40;6.80;;;;;;;6.05;71.87;94182.94;2984177;39;20066;-85
2021/04/20 02:47:28;;;;;;;9.45;6.55;;;;;;;5.97;71.28;94181.03;3006152;39;20065;-85
2021/04/20 02:49:30;;;;;;;8.40;6.07;;;;;;;5.89;72.10;94179.16;2989300;39;20132;-85
2021/04/20 02:51:44;;;;;;;9.40;6.88;;;;;;;5.82;72.07;94182.44;2974150;39;21205;-83
2021/04/20 02:53:47;;;;;;;9.05;6.38;;;;;;;5.75;72.07;94182.19;2988002;39;20064;-85
2021/04/20 02:55:48;;;;;;;8.43;6.65;;;;;;;5.81;72.66;94188.59;2988619;39;20087;-83
2021/04/20 02:57:54;;;;;;;8.93;6.78;;;;;;;5.76;71.83;94186.44;2979711;39;20074;-85
2021/04/20 02:59:56;;;;;;;10.07;6.95;;;;;;;5.72;73.09;94191.09;2981844;39;20058;-83
2021/04/20 03:01:59;;;;;;;10.02;7.45;;;;;;;5.70;72.75;94187.00;2985604;39;20051;-81
2021/04/20 03:04:00;;;;;;;8.48;6.80;;;;;;;5.79;72.69;94187.94;2998277;39;20050;-84
2021/04/20 03:06:04;;;;;;;9.23;7.00;;;;;;;5.84;72.28;94183.94;2987920;39;20071;-81
2021/04/20 03:08:06;;;;;;;10.85;7.20;;;;;;;5.85;72.55;94195.16;2991297;39;20031;-83
2021/04/20 03:10:08;;;;;;;11.05;7.45;;;;;;;5.88;71.92;94187.91;2982615;39;20036;-85
2021/04/20 03:12:10;;;;;;;11.93;6.97;;;;;;;5.91;72.10;94186.78;2987974;39;20076;-84
2021/04/20 03:14:12;;;;;;;12.35;7.43;;;;;;;5.96;71.65;94187.22;2990105;39;20051;-83
2021/04/20 03:16:15;;;;;;;10.55;7.13;;;;;;;5.82;72.21;94195.44;2986591;39;20051;-84
2021/04/20 03:18:16;;;;;;;10.05;6.78;;;;;;;5.89;72.41;94193.91;2997086;39;20058;-83
2021/04/20 03:20:18;;;;;;;10.48;7.93;;;;;;;5.87;71.70;94203.63;2996081;39;20462;-84
2021/04/20 03:22:20;;;;;;;9.63;6.85;;;;;;;5.92;71.99;94202.25;2976661;40;20087;-84
2021/04/20 03:24:30;;;;;;;11.82;7.45;;;;;;;5.87;72.00;94199.28;2988293;39;20050;-83
2021/04/20 03:26:33;;;;;;;12.48;7.97;;;;;;;5.91;72.42;94194.59;2996098;39;20047;-85
2021/04/20 03:28:34;;;;;;;10.05;7.03;;;;;;;5.92;71.97;94196.22;2991130;39;20055;-86
2021/04/20 03:30:36;;;;;;;11.82;8.02;;;;;;;6.01;72.16;94203.19;3000723;39;20055;-84
2021/04/20 03:32:40;;;;;;;12.55;7.72;;;;;;;6.04;72.02;94202.91;2989084;39;20055;-84
2021/04/20 03:35:02;;;;;;;11.25;7.90;;;;;;;6.06;71.95;94203.56;2991323;39;20055;-84
2021/04/20 03:37:06;;;;;;;11.43;7.90;;;;;;;6.07;71.42;94205.22;2994496;39;20446;-71
2021/04/20 03:39:14;;;;;;;11.60;8.05;;;;;;;6.04;71.65;94200.31;2985645;39;20047;-72
2021/04/20 03:41:24;;;;;;;10.27;7.95;;;;;;;6.11;72.00;94203.97;2982733;39;20059;-71
2021/04/20 03:43:28;;;;;;;10.85;7.82;;;;;;;6.14;71.92;94201.09;2982803;39;20039;-71
2021/04/20 03:45:33;;;;;;;11.15;8.20;;;;;;;6.17;71.45;94206.97;2975451;40;20044;-72
2021/04/20 03:47:43;;;;;;;11.18;7.72;;;;;;;6.11;70.72;94211.78;2978290;39;20048;-72
2021/04/20 03:49:47;;;;;;;12.27;8.40;;;;;;;6.15;71.43;94210.53;2974290;39;20063;-71
2021/04/20 03:51:52;;;;;;;11.13;8.88;;;;;;;6.22;70.95;94217.78;2976182;39;20359;-71
2021/04/20 03:53:55;;;;;;;13.25;8.98;;;;;;;6.25;70.87;94213.06;2981627;39;20109;-71
2021/04/20 03:55:57;;;;;;;9.85;7.70;;;;;;;6.14;71.08;94223.69;2992014;39;20047;-72
2021/04/20 03:57:59;;;;;;;10.73;7.82;;;;;;;6.05;71.30;94221.94;2973989;39;20052;-72
2021/04/20 04:00:03;;;;;;;9.68;7.97;;;;;;;6.02;71.51;94224.81;2972868;39;20078;-73
2021/04/20 04:02:04;;;;;;;11.77;8.20;;;;;;;5.98;71.73;94226.06;2983206;39;20078;-72
2021/04/20 04:04:12;;;;;;;10.77;7.97;;;;;;;5.95;71.58;94227.16;2983224;39;20079;-72
2021/04/20 04:06:14;;;;;;;10.30;7.65;;;;;;;5.85;71.72;94226.34;2974573;39;20055;-71
2021/04/20 04:08:17;;;;;;;12.48;8.48;;;;;;;5.89;71.83;94238.09;2980852;39;20062;-72
2021/04/20 04:10:21;;;;;;;11.25;7.68;;;;;;;5.91;71.58;94233.56;2981741;39;20149;-72
2021/04/20 04:12:22;;;;;;;;;;;;;;;5.97;71.83;94235.66;2990801;39;20055;-71
2021/04/20 04:14:27;;;;;;;11.48;8.40;;;;;;;6.03;71.26;94239.47;2982785;39;19963;-71
2021/04/20 04:16:30;;;;;;;12.00;8.75;;;;;;;6.01;71.48;94247.41;2991453;39;20075;-72
2021/04/20 04:18:33;;;;;;;11.23;8.38;;;;;;;6.00;71.57;94239.72;2983413;39;20147;-71
2021/04/20 04:20:34;;;;;;;11.25;8.05;;;;;;;5.89;71.31;94243.28;2981212;39;20079;-72
2021/04/20 04:22:37;;;;;;;11.00;8.95;;;;;;;5.59;72.78;94254.72;2988279;39;20082;-72
2021/04/20 04:24:46;;;;;;;11.93;7.32;;;;;;;5.26;73.71;94246.44;2982351;39;20063;-72
2021/04/20 04:26:55;;;;;;;12.02;9.15;;;;;;;5.26;73.86;94256.81;2982851;39;20338;-73
2021/04/20 04:28:58;;;;;;;12.90;9.32;;;;;;;5.10;74.68;94252.19;2982449;39;20063;-73
2021/04/20 04:31:03;;;;;;;13.38;8.90;;;;;;;5.25;74.53;94253.41;2984176;39;20044;-73
2021/04/20 04:33:05;;;;;;;14.77;9.93;;;;;;;5.43;74.19;94252.72;2987133;39;20052;-85
2021/04/20 04:35:07;;;;;;;13.18;9.60;;;;;;;5.64;73.26;94252.53;2986381;39;20055;-84
2021/04/20 04:37:09;;;;;;;12.93;9.95;;;;;;;5.73;73.04;94255.09;2986589;39;20028;-85
2021/04/20 04:39:13;;;;;;;13.27;9.70;;;;;;;5.82;71.99;94252.63;2978137;40;20079;-84
2021/04/20 04:41:15;;;;;;;14.52;10.10;;;;;;;5.87;71.79;94258.22;2986699;39;20274;-84
2021/04/20 04:43:17;;;;;;;13.23;9.77;;;;;;;5.88;71.67;94254.66;2988100;39;20425;-87
2021/04/20 04:45:18;;;;;;;12.60;9.35;;;;;;;5.88;71.32;94263.28;2993039;39;20028;-87
2021/04/20 04:47:20;;;;;;;11.80;8.55;;;;;;;5.98;71.05;94262.47;2992525;39;20100;-83
2021/04/20 04:49:21;;;;;;;13.23;9.27;;;;;;;6.01;71.45;94260.41;2979520;39;20063;-87
2021/04/20 04:51:24;;;;;;;13.25;9.50;;;;;;;6.05;71.70;94259.16;2975484;39;20195;-71
2021/04/20 04:53:26;;;;;;;12.27;9.60;;;;;;;6.11;71.19;94269.00;2976413;39;20062;-71
2021/04/20 04:55:27;;;;;;;13.10;9.80;;;;;;;6.10;70.80;94267.34;2987188;39;20047;-72
2021/04/20 04:57:29;;;;;;;13.73;9.88;;;;;;;5.96;71.72;94275.63;2993753;39;20076;-73
2021/04/20 04:59:34;;;;;;;14.23;10.90;;;;;;;6.03;71.91;94274.09;2984100;39;20127;-72
2021/04/20 05:01:38;;;;;;;14.50;10.98;;;;;;;6.05;71.95;94272.16;2979185;39;20063;-73
2021/04/20 05:03:40;;;;;;;14.02;11.02;;;;;;;6.20;71.23;94276.91;2983743;39;20052;-84
2021/04/20 05:05:42;;;;;;;14.57;10.90;;;;;;;6.17;71.45;94277.19;3001372;39;20083;-85
2021/04/20 05:07:43;;;;;;;16.40;11.38;;;;;;;6.10;71.74;94275.16;2987852;39;20039;-85
2021/04/20 05:09:44;;;;;;;16.15;11.77;;;;;;;6.00;72.32;94283.94;2991071;39;20083;-85
2021/04/20 05:11:48;;;;;;;17.23;12.98;;;;;;;5.81;72.95;94293.41;2999763;39;20036;-74
2021/04/20 05:13:49;;;;;;;17.38;12.20;;;;;;;5.89;72.77;94280.53;2982414;39;20459;-73
2021/04/20 05:15:50;;;;;;;16.02;11.63;;;;;;;5.92;72.81;94292.44;2980442;39;20321;-72
2021/04/20 05:17:52;;;;;;;15.50;11.25;;;;;;;5.92;72.77;94284.63;2996257;39;20087;-72
2021/04/20 05:19:53;;;;;;;15.18;11.18;;;;;;;5.97;73.26;94298.03;2982480;39;20347;-71
2021/04/20 05:21:56;;;;;;;15.23;11.70;;;;;;;5.94;72.92;94283.56;2975069;39;20367;-72
2021/04/20 05:23:58;;;;;;;17.40;12.65;;;;;;;6.00;73.03;94292.59;2987127;39;20055;-73
2021/04/20 05:26:00;;;;;;;14.70;10.77;;;;;;;6.06;72.44;94294.59;2983023;39;20052;-71
2021/04/20 05:28:02;;;;;;;14.70;10.85;;;;;;;6.20;71.99;94293.34;2994835;39;20061;-73
2021/04/20 05:30:04;;;;;;;15.35;10.75;;;;;;;6.26;71.72;94294.53;2997068;39;20047;-73
2021/04/20 05:32:09;;;;;;;13.85;10.63;;;;;;;6.34;70.99;94292.84;2984085;39;20084;-73
2021/04/20 05:34:11;;;;;;;14.32;10.23;;;;;;;6.46;70.79;94296.09;2983517;39;20047;-73
2021/04/20 05:36:13;;;;;;;16.52;10.77;;;;;;;6.55;70.59;94297.00;2982923;39;20063;-72
2021/04/20 05:38:18;;;;;;;15.98;10.93;;;;;;;6.45;70.81;94296.22;2997980;39;20047;-73
2021/04/20 05:40:25;;;;;;;15.40;10.65;;;;;;;6.56;70.85;94298.69;2992364;39;20368;-72
2021/04/20 05:42:26;;;;;;;14.65;9.55;;;;;;;6.46;69.97;94303.91;2983565;39;20059;-73
2021/04/20 05:44:31;;;;;;;14.40;10.65;;;;;;;6.57;70.46;94306.31;2983376;39;20070;-73
2021/04/20 05:46:36;;;;;;;14.50;11.40;;;;;;;6.69;69.76;94306.13;2991203;39;20415;-73
2021/04/20 05:48:38;;;;;;;18.23;10.85;;;;;;;6.88;69.56;94302.59;2998559;39;20550;-72
2021/04/20 05:50:39;;;;;;;15.93;10.98;;;;;;;6.82;69.29;94305.78;2983651;39;20055;-73
2021/04/20 05:52:41;;;;;;;18.60;11.68;;;;;;;6.98;69.16;94309.38;2983019;39;20050;-72
2021/04/20 05:54:42;;;;;;;18.33;12.50;;;;;;;7.17;69.03;94299.81;2982644;39;20231;-74
2021/04/20 05:56:43;;;;;;;15.57;11.48;;;;;;;7.33;68.31;94299.94;2992009;39;20051;-72
2021/04/20 05:58:45;;;;;;;14.52;11.15;;;;;;;7.34;67.97;94312.03;2983011;39;20050;-72
2021/04/20 06:00:46;;;;;;;13.98;10.48;;;;;;;7.29;67.64;94310.81;2984737;39;20328;-72
2021/04/20 06:02:50;;;;;;;15.52;11.75;;;;;;;7.09;68.51;94310.16;2977524;39;20475;-75
2021/04/20 06:04:57;;;;;;;16.75;11.18;;;;;;;7.11;68.16;94319.44;2980923;39;20156;-72
2021/04/20 06:06:58;;;;;;;14.30;10.65;;;;;;;7.14;68.98;94316.56;2987673;39;20116;-74
2021/04/20 06:09:01;;;;;;;16.30;11.98;;;;;;;7.09;68.71;94317.97;2979918;39;20050;-88
2021/04/20 06:11:07;;;;;;;17.95;12.82;;;;;;;7.04;68.77;94315.00;3004717;39;20055;-88
2021/04/20 06:13:10;;;;;;;17.20;12.65;;;;;;;6.76;69.39;94326.22;2995266;39;20083;-87
2021/04/20 06:15:12;;;;;;;15.85;10.73;;;;;;;6.42;69.62;94331.16;2995333;39;20059;-87
2021/04/20 06:17:17;;;;;;;15.45;10.90;;;;;;;6.36;69.94;94327.34;3000724;39;20067;-86
2021/04/20 06:19:19;;;;;;;15.15;11.52;;;;;;;6.62;70.05;94331.91;3004213;39;20047;-87
2021/04/20 06:21:23;;;;;;;15.68;11.60;;;;;;;6.69;69.35;94327.78;2986721;39;20055;-87
2021/04/20 06:23:24;;;;;;;15.82;11.40;;;;;;;6.90;68.94;94329.31;2978531;39;20119;-87
2021/04/20 06:25:25;;;;;;;15.75;11.75;;;;;;;7.15;68.27;94325.19;2996217;39;20075;-86
2021/04/20 06:27:27;;;;;;;16.35;11.52;;;;;;;7.31;67.15;94329.72;2986833;39;20117;-86
2021/04/20 06:29:29;;;;;;;13.90;10.75;;;;;;;7.47;66.26;94329.09;2984800;39;20131;-72
2021/04/20 06:31:33;;;;;;;15.68;11.65;;;;;;;7.57;65.84;94330.66;2995174;39;20049;-74
2021/04/20 06:33:37;;;;;;;14.95;11.02;;;;;;;7.71;65.39;94331.88;2985758;39;20059;-72
2021/04/20 06:35:39;;;;;;;17.05;11.48;;;;;;;7.75;65.11;94333.22;2990546;39;20050;-74
2021/04/20 06:37:43;;;;;;;16.90;10.73;;;;;;;7.65;63.89;94339.50;2984960;39;20051;-75
2021/04/20 06:39:46;;;;;;;15.32;10.95;;;;;;;7.46;63.64;94327.44;2976357;39;20059;-73
2021/04/20 06:41:50;;;;;;;13.60;10.50;;;;;;;7.43;63.99;94332.94;2986130;39;20055;-74
2021/04/20 06:44:15;;;;;;;14.07;11.02;;;;;;;7.57;64.01;94321.97;2979902;39;20574;-72
2021/04/20 06:46:28;;;;;;;14.60;10.45;;;;;;;7.70;63.46;94332.88;2981397;39;20471;-72
2021/04/20 06:48:42;;;;;;;;;;;;;;;7.96;62.84;94324.28;2966355;39;702293;-72
2021/04/20 06:50:44;;;;;;;18.40;10.43;;;;;;;8.10;61.94;94326.31;2983767;39;19940;-73
2021/04/20 06:53:03;;;;;;;16.02;10.00;;;;;;;8.16;61.14;94325.69;2986029;39;20091;-72
2021/04/20 06:55:33;;;;;;;11.90;9.32;;;;;;;8.29;59.94;94335.72;2982111;39;20051;-74
2021/04/20 06:57:44;;;;;;;15.00;9.90;;;;;;;8.43;60.27;94323.91;2992544;39;20448;-74
2021/04/20 07:00:10;;;;;;;13.43;10.65;;;;;;;8.51;59.89;94326.56;2983203;39;20184;-75
2021/04/20 07:02:30;;;;;;;14.95;10.07;;;;;;;8.60;60.34;94319.59;2995388;39;20055;-73
2021/04/20 07:04:31;;;;;;;20.23;12.68;;;;;;;8.63;60.95;94318.50;2993189;39;20051;-74
2021/04/20 07:06:37;;;;;;;15.98;11.38;;;;;;;8.54;59.96;94318.44;2983436;39;20094;-73
2021/04/20 07:08:43;;;;;;;13.63;10.65;;;;;;;8.45;59.31;94318.56;2987082;39;20472;-86
2021/04/20 07:10:45;;;;;;;15.13;11.13;;;;;;;8.50;58.76;94326.75;2993194;39;20099;-87
2021/04/20 07:12:47;;;;;;;14.57;9.90;;;;;;;8.06;58.08;94330.19;3002383;39;20063;-84
2021/04/20 07:14:55;;;;;;;13.35;9.90;;;;;;;8.07;58.84;94339.66;2984764;39;20051;-84
2021/04/20 07:17:04;;;;;;;17.63;11.63;;;;;;;7.99;60.88;94331.78;2978367;39;20045;-86
2021/04/20 07:19:15;;;;;;;18.25;11.85;;;;;;;8.05;61.59;94331.19;2998428;39;20031;-86
2021/04/20 07:21:44;;;;;;;17.27;11.85;;;;;;;8.10;62.01;94335.94;2992619;39;20039;-89
2021/04/20 07:23:54;;;;;;;15.43;12.20;;;;;;;7.87;62.73;94346.88;2987634;39;20063;-85
2021/04/20 07:26:07;;;;;;;18.13;12.45;;;;;;;7.79;63.06;94338.97;2998643;39;20067;-88
2021/04/20 07:28:17;;;;;;;20.15;11.38;;;;;;;7.95;61.06;94344.28;2988924;39;20032;-87
2021/04/20 07:30:32;;;;;;;17.10;12.05;;;;;;;7.88;60.89;94352.91;2997602;39;20057;-85
2021/04/20 07:33:11;;;;;;;14.93;11.35;;;;;;;8.13;61.23;94351.28;2979547;39;20105;-85
2021/04/20 07:35:23;;;;;;;13.73;10.00;;;;;;;8.36;58.49;94356.81;2979946;39;20031;-87
2021/04/20 07:37:34;;;;;;;12.82;9.68;;;;;;;8.57;57.83;94354.69;2979604;40;20044;-89
2021/04/20 07:39:47;;;;;;;15.00;10.50;;;;;;;8.65;57.79;94356.53;2979518;39;20048;-88
2021/04/20 07:41:54;;;;;;;13.80;9.60;;;;;;;8.79;56.63;94358.53;2989765;39;20028;-86
2021/04/20 07:44:08;;;;;;;12.10;9.20;;;;;;;8.99;54.20;94353.91;3005080;39;20087;-86
2021/04/20 07:46:52;;;;;;;12.40;9.30;;;;;;;9.18;53.44;94350.22;2996594;39;20036;-86
2021/04/20 07:49:08;;;;;;;14.25;9.32;;;;;;;9.05;53.85;94360.28;2945292;40;20057;-88
2021/04/20 07:51:38;;;;;;;15.23;9.98;;;;;;;8.97;53.40;94381.97;2953093;40;20041;-87
2021/04/20 07:53:50;;;;;;;12.85;8.70;;;;;;;9.00;51.11;94360.75;2954331;39;20059;-85
2021/04/20 07:55:58;;;;;;;15.13;10.38;;;;;;;9.16;52.08;94367.00;2996554;39;20054;-86
2021/04/20 07:58:03;;;;;;;11.93;9.30;;;;;;;9.31;50.32;94364.59;2988947;39;20040;-87
2021/04/20 08:00:15;;;;;;;12.45;9.73;;;;;;;9.45;50.12;94376.25;2981573;39;20039;-83
2021/04/20 08:02:42;;;;;;;10.70;8.60;;;;;;;9.43;49.85;94366.75;2988780;39;20040;-84
2021/04/20 08:05:00;;;;;;;13.07;9.52;;;;;;;9.47;50.09;94371.69;2971914;39;20399;-73
2021/04/20 08:07:09;;;;;;;13.48;9.82;;;;;;;9.38;50.91;94376.88;2990293;39;20249;-74
2021/04/20 08:09:15;;;;;;;12.23;9.43;;;;;;;9.34;52.19;94379.97;2974943;39;20050;-74
2021/04/20 08:11:32;;;;;;;13.00;10.63;;;;;;;9.10;53.96;94385.94;2975128;39;20079;-71
2021/04/20 08:13:47;;;;;;;13.13;10.30;;;;;;;9.10;54.23;94389.38;2977015;39;20420;-73
2021/04/20 08:15:50;;;;;;;15.63;9.50;;;;;;;8.98;54.33;94386.22;2982483;39;20055;-72
2021/04/20 08:18:08;;;;;;;13.70;10.38;;;;;;;8.92;54.65;94386.03;2984753;39;20043;-74
2021/04/20 08:20:17;;;;;;;18.83;12.00;;;;;;;9.01;54.47;94388.53;2982141;39;20076;-73
2021/04/20 08:22:19;;;;;;;18.90;13.13;;;;;;;9.07;54.80;94388.88;2979638;39;20055;-71
2021/04/20 08:24:24;;;;;;;18.95;12.40;;;;;;;9.16;54.46;94388.75;2991852;39;20050;-73
2021/04/20 08:26:32;;;;;;;14.15;10.82;;;;;;;9.30;54.00;94382.09;2983079;39;20047;-74
2021/04/20 08:28:48;;;;;;;16.88;11.90;;;;;;;9.47;54.86;94377.72;2982811;39;20512;-73
2021/04/20 08:31:06;;;;;;;18.00;11.70;;;;;;;9.58;53.80;94379.22;2991374;39;20086;-73
2021/04/20 08:33:13;;;;;;;14.55;10.35;;;;;;;9.55;53.60;94380.38;2982290;39;20541;-73
2021/04/20 08:35:21;;;;;;;14.88;10.63;;;;;;;9.60;53.35;94378.06;2982710;39;20177;-73
2021/04/20 08:37:35;;;;;;;14.88;11.05;;;;;;;9.42;53.98;94375.59;2986046;39;20063;-74
2021/04/20 08:39:51;;;;;;;16.15;11.07;;;;;;;9.50;53.76;94381.81;2972701;39;20058;-73
2021/04/20 08:42:10;;;;;;;13.57;10.88;;;;;;;9.53;53.00;94374.47;2976720;39;20416;-75
2021/04/20 08:44:18;;;;;;;13.63;10.23;;;;;;;9.47;53.37;94380.34;2984421;39;20043;-85
2021/04/20 08:46:40;;;;;;;14.88;10.95;;;;;;;9.32;52.66;94387.97;2996094;39;20059;-89
2021/04/20 08:49:01;;;;;;;14.27;11.27;;;;;;;9.20;53.24;94382.22;2996357;39;20285;-88
2021/04/20 08:51:52;;;;;;;15.05;10.73;;;;;;;9.21;53.38;94380.44;2986711;39;20055;-88
2021/04/20 08:54:11;;;;;;;16.83;11.88;;;;;;;8.99;54.12;94384.41;2978584;39;20078;-87
2021/04/20 08:56:17;;;;;;;16.77;12.05;;;;;;;9.08;53.97;94390.50;2995756;39;20103;-87
2021/04/20 08:58:21;;;;;;;15.30;11.82;;;;;;;9.17;54.21;94386.94;3003212;39;20063;-85
2021/04/20 09:00:43;;;;;;;16.75;11.88;;;;;;;9.17;54.64;94386.94;3002455;39;20364;-86
2021/04/20 09:02:54;;;;;;;15.98;12.35;;;;;;;9.01;55.05;94392.91;2971716;39;20152;-85
2021/04/20 09:05:22;;;;;;;19.92;13.23;;;;;;;9.14;55.13;94393.31;2979424;39;20036;-86
2021/04/20 09:07:30;;;;;;;21.67;13.05;;;;;;;9.23;55.43;94402.81;2994535;39;20062;-85
2021/04/20 09:09:31;;;;;;;19.10;12.43;;;;;;;9.30;54.68;94397.78;2992282;39;20110;-89
2021/04/20 09:11:41;;;;;;;19.23;14.02;;;;;;;9.34;55.09;94398.28;2977792;40;20037;-88
2021/04/20 09:13:58;;;;;;;18.48;13.50;;;;;;;9.40;55.69;94398.47;2978104;39;20058;-74
2021/04/20 09:16:06;;;;;;;16.40;12.00;;;;;;;9.57;55.75;94396.72;2981844;39;20397;-74
2021/04/20 09:18:27;;;;;;;20.08;14.32;;;;;;;9.40;56.34;94395.84;2990424;39;20333;-72
2021/04/20 09:20:37;;;;;;;20.88;13.40;;;;;;;9.39;55.59;94396.00;2981692;39;20048;-74
2021/04/20 09:22:57;;;;;;;16.65;11.95;;;;;;;9.44;54.55;94396.34;2975370;39;20502;-75
2021/04/20 09:25:20;;;;;;;16.73;12.70;;;;;;;9.32;55.29;94390.59;2978391;39;20040;-74
2021/04/20 09:27:39;;;;;;;18.77;11.75;;;;;;;9.37;55.07;94393.53;2991486;39;20065;-75
2021/04/20 09:29:57;;;;;;;18.88;12.77;;;;;;;9.46;55.26;94396.19;2971587;39;20122;-74
2021/04/20 09:32:01;;;;;;;16.40;11.68;;;;;;;9.58;54.43;94390.50;2982391;39;20047;-74
2021/04/20 09:34:04;;;;;;;14.70;10.18;;;;;;;9.74;53.05;94400.16;2991669;39;20091;-75
2021/04/20 09:36:08;;;;;;;14.85;10.68;;;;;;;9.80;52.66;94394.28;2982065;39;20047;-73
2021/04/20 09:38:12;;;;;;;13.40;10.10;;;;;;;9.82;51.43;94383.66;2988337;39;20055;-73
2021/04/20 09:40:16;;;;;;;14.05;10.00;;;;;;;9.77;51.55;94392.00;2978550;39;20059;-75
2021/04/20 09:42:18;;;;;;;11.88;9.52;;;;;;;9.91;51.17;94385.28;2979443;39;20091;-73
2021/04/20 09:44:35;;;;;;;15.48;10.07;;;;;;;9.98;51.18;94393.31;2979014;39;20048;-73
2021/04/20 09:46:42;;;;;;;14.60;10.38;;;;;;;9.96;51.47;94387.41;2984225;39;20062;-74
2021/04/20 09:49:04;;;;;;;14.15;10.15;;;;;;;10.07;51.50;94383.66;2993126;39;20071;-75
2021/04/20 09:51:12;;;;;;;14.23;10.73;;;;;;;10.18;51.96;94381.56;2975192;39;20059;-73
2021/04/20 09:53:29;;;;;;;13.65;10.35;;;;;;;10.22;51.07;94379.44;2981383;39;20055;-75